sensor_id;sensor_type;location;lat;lon;timestamp;pressure;altitude;pressure_sealevel;temperature;humidity
41706;BME280;27385;51.096;17.190;2023-05-01T00:00:31;100871.13;;;4.26;69.65
41706;BME280;27385;51.096;17.190;2023-05-01T00:03:15;100870.41;;;4.22;69.82
41706;BME280;27385;51.096;17.190;2023-05-01T00:05:47;100865.91;;;4.21;69.81
41706;BME280;27385;51.096;17.190;2023-05-01T00:08:18;100861.71;;;4.18;69.70
41706;BME280;27385;51.096;17.190;2023-05-01T00:10:49;100861.15;;;4.13;69.85
41706;BME280;27385;51.096;17.190;2023-05-01T00:13:20;100858.92;;;4.10;69.81
41706;BME280;27385;51.096;17.190;2023-05-01T00:15:52;100860.26;;;4.06;69.86
41706;BME280;27385;51.096;17.190;2023-05-01T00:18:24;100854.46;;;4.02;69.92
41706;BME280;27385;51.096;17.190;2023-05-01T00:20:54;100851.98;;;4.00;70.08
41706;BME280;27385;51.096;17.190;2023-05-01T00:23:25;100850.23;;;3.96;70.11
41706;BME280;27385;51.096;17.190;2023-05-01T00:25:56;100849.27;;;3.92;70.20
41706;BME280;27385;51.096;17.190;2023-05-01T00:28:27;100847.09;;;3.90;70.36
41706;BME280;27385;51.096;17.190;2023-05-01T00:30:58;100842.64;;;3.92;70.43
41706;BME280;27385;51.096;17.190;2023-05-01T00:33:29;100843.28;;;3.92;70.45
41706;BME280;27385;51.096;17.190;2023-05-01T00:36:01;100838.45;;;3.87;70.47
41706;BME280;27385;51.096;17.190;2023-05-01T00:38:32;100836.31;;;3.83;70.62
41706;BME280;27385;51.096;17.190;2023-05-01T00:41:03;100836.22;;;3.79;70.69
41706;BME280;27385;51.096;17.190;2023-05-01T00:43:33;100832.89;;;3.75;70.83
41706;BME280;27385;51.096;17.190;2023-05-01T00:46:04;100834.00;;;3.70;70.84
41706;BME280;27385;51.096;17.190;2023-05-01T00:48:36;100830.37;;;3.64;70.98
41706;BME280;27385;51.096;17.190;2023-05-01T00:51:08;100829.78;;;3.62;71.08
41706;BME280;27385;51.096;17.190;2023-05-01T00:53:40;100827.91;;;3.56;71.25
41706;BME280;27385;51.096;17.190;2023-05-01T00:56:11;100829.88;;;3.50;71.42
41706;BME280;27385;51.096;17.190;2023-05-01T00:58:42;100830.30;;;3.43;71.44
41706;BME280;27385;51.096;17.190;2023-05-01T01:01:14;100829.86;;;3.36;71.50
41706;BME280;27385;51.096;17.190;2023-05-01T01:03:46;100827.64;;;3.31;71.63
41706;BME280;27385;51.096;17.190;2023-05-01T01:06:23;100820.52;;;3.26;71.65
41706;BME280;27385;51.096;17.190;2023-05-01T01:09:06;100821.83;;;3.23;71.68
41706;BME280;27385;51.096;17.190;2023-05-01T01:11:49;100822.73;;;3.20;71.78
41706;BME280;27385;51.096;17.190;2023-05-01T01:14:28;100819.64;;;3.17;72.03
41706;BME280;27385;51.096;17.190;2023-05-01T01:17:15;100822.13;;;3.13;71.96
41706;BME280;27385;51.096;17.190;2023-05-01T01:20:09;100818.80;;;3.08;72.06
41706;BME280;27385;51.096;17.190;2023-05-01T01:22:48;100822.55;;;3.04;72.29
41706;BME280;27385;51.096;17.190;2023-05-01T01:29:03;100815.67;;;3.01;72.48
41706;BME280;27385;51.096;17.190;2023-05-01T01:31:48;100810.66;;;2.98;72.58
41706;BME280;27385;51.096;17.190;2023-05-01T01:34:27;100816.37;;;2.95;72.67
41706;BME280;27385;51.096;17.190;2023-05-01T01:37:07;100814.92;;;2.91;72.71
41706;BME280;27385;51.096;17.190;2023-05-01T01:39:47;100811.02;;;2.87;72.56
41706;BME280;27385;51.096;17.190;2023-05-01T01:42:24;100814.16;;;2.82;73.14
41706;BME280;27385;51.096;17.190;2023-05-01T01:44:59;100814.23;;;2.77;73.03
41706;BME280;27385;51.096;17.190;2023-05-01T01:47:33;100811.59;;;2.74;73.06
41706;BME280;27385;51.096;17.190;2023-05-01T01:50:08;100807.21;;;2.71;73.00
41706;BME280;27385;51.096;17.190;2023-05-01T01:52:43;100809.20;;;2.70;73.07
41706;BME280;27385;51.096;17.190;2023-05-01T01:55:15;100807.34;;;2.67;73.22
41706;BME280;27385;51.096;17.190;2023-05-01T01:57:48;100810.35;;;2.65;73.33
41706;BME280;27385;51.096;17.190;2023-05-01T02:00:20;100803.98;;;2.65;73.58
41706;BME280;27385;51.096;17.190;2023-05-01T02:02:52;100809.02;;;2.64;73.83
41706;BME280;27385;51.096;17.190;2023-05-01T02:05:26;100812.13;;;2.61;74.04
41706;BME280;27385;51.096;17.190;2023-05-01T02:07:59;100806.96;;;2.59;74.08
41706;BME280;27385;51.096;17.190;2023-05-01T02:10:32;100807.14;;;2.56;74.05
41706;BME280;27385;51.096;17.190;2023-05-01T02:13:05;100810.98;;;2.52;74.05
41706;BME280;27385;51.096;17.190;2023-05-01T02:15:38;100811.17;;;2.47;74.06
41706;BME280;27385;51.096;17.190;2023-05-01T02:18:10;100805.00;;;2.44;74.08
41706;BME280;27385;51.096;17.190;2023-05-01T02:20:42;100801.55;;;2.42;74.03
41706;BME280;27385;51.096;17.190;2023-05-01T02:23:14;100797.50;;;2.38;74.00
41706;BME280;27385;51.096;17.190;2023-05-01T02:25:45;100795.66;;;2.34;74.06
41706;BME280;27385;51.096;17.190;2023-05-01T02:28:22;100792.06;;;2.31;74.02
41706;BME280;27385;51.096;17.190;2023-05-01T02:30:54;100791.23;;;2.29;74.06
41706;BME280;27385;51.096;17.190;2023-05-01T02:33:25;100795.27;;;2.26;74.14
41706;BME280;27385;51.096;17.190;2023-05-01T02:35:56;100790.03;;;2.23;74.18
41706;BME280;27385;51.096;17.190;2023-05-01T02:38:27;100786.77;;;2.19;74.33
41706;BME280;27385;51.096;17.190;2023-05-01T02:40:59;100784.75;;;2.16;74.35
41706;BME280;27385;51.096;17.190;2023-05-01T02:43:32;100782.67;;;2.12;74.52
41706;BME280;27385;51.096;17.190;2023-05-01T02:46:04;100780.77;;;2.06;74.66
41706;BME280;27385;51.096;17.190;2023-05-01T02:48:38;100783.23;;;2.02;74.77
41706;BME280;27385;51.096;17.190;2023-05-01T02:51:10;100782.30;;;2.00;74.78
41706;BME280;27385;51.096;17.190;2023-05-01T02:53:42;100782.64;;;1.98;74.87
41706;BME280;27385;51.096;17.190;2023-05-01T02:56:13;100781.73;;;1.94;74.78
41706;BME280;27385;51.096;17.190;2023-05-01T02:58:44;100779.17;;;1.91;74.97
41706;BME280;27385;51.096;17.190;2023-05-01T03:01:15;100778.27;;;1.88;75.02
41706;BME280;27385;51.096;17.190;2023-05-01T03:03:45;100778.83;;;1.85;75.03
41706;BME280;27385;51.096;17.190;2023-05-01T03:06:16;100780.90;;;1.84;75.25
41706;BME280;27385;51.096;17.190;2023-05-01T03:08:47;100782.32;;;1.82;75.31
41706;BME280;27385;51.096;17.190;2023-05-01T03:11:18;100778.94;;;1.80;75.38
41706;BME280;27385;51.096;17.190;2023-05-01T03:13:49;100779.34;;;1.79;75.36
41706;BME280;27385;51.096;17.190;2023-05-01T03:16:20;100781.89;;;1.78;75.51
41706;BME280;27385;51.096;17.190;2023-05-01T03:18:51;100785.77;;;1.75;75.60
41706;BME280;27385;51.096;17.190;2023-05-01T03:21:22;100780.90;;;1.73;75.76
41706;BME280;27385;51.096;17.190;2023-05-01T03:23:53;100780.30;;;1.69;75.75
41706;BME280;27385;51.096;17.190;2023-05-01T03:26:24;100782.13;;;1.67;75.94
41706;BME280;27385;51.096;17.190;2023-05-01T03:28:55;100779.93;;;1.66;76.00
41706;BME280;27385;51.096;17.190;2023-05-01T03:31:25;100774.52;;;1.65;75.91
41706;BME280;27385;51.096;17.190;2023-05-01T03:33:56;100774.91;;;1.65;75.99
41706;BME280;27385;51.096;17.190;2023-05-01T03:36:27;100773.73;;;1.63;75.95
41706;BME280;27385;51.096;17.190;2023-05-01T03:38:58;100768.41;;;1.61;76.10
41706;BME280;27385;51.096;17.190;2023-05-01T03:41:29;100767.25;;;1.58;76.19
41706;BME280;27385;51.096;17.190;2023-05-01T03:44:00;100773.64;;;1.57;76.22
41706;BME280;27385;51.096;17.190;2023-05-01T03:46:31;100770.90;;;1.56;76.35
41706;BME280;27385;51.096;17.190;2023-05-01T03:49:01;100772.64;;;1.54;76.29
41706;BME280;27385;51.096;17.190;2023-05-01T03:51:32;100770.70;;;1.51;76.66
41706;BME280;27385;51.096;17.190;2023-05-01T03:54:03;100771.89;;;1.50;76.75
41706;BME280;27385;51.096;17.190;2023-05-01T03:56:34;100777.01;;;1.48;76.68
41706;BME280;27385;51.096;17.190;2023-05-01T03:59:06;100775.52;;;1.47;76.87
41706;BME280;27385;51.096;17.190;2023-05-01T04:01:37;100773.88;;;1.46;77.03
41706;BME280;27385;51.096;17.190;2023-05-01T04:04:08;100773.80;;;1.47;77.39
41706;BME280;27385;51.096;17.190;2023-05-01T04:06:39;100775.83;;;1.48;77.35
41706;BME280;27385;51.096;17.190;2023-05-01T04:09:10;100773.24;;;1.47;77.43
41706;BME280;27385;51.096;17.190;2023-05-01T04:11:41;100771.83;;;1.47;77.55
41706;BME280;27385;51.096;17.190;2023-05-01T04:14:12;100767.58;;;1.47;77.75
41706;BME280;27385;51.096;17.190;2023-05-01T04:16:43;100768.67;;;1.49;77.92
41706;BME280;27385;51.096;17.190;2023-05-01T04:19:14;100764.63;;;1.53;78.13
41706;BME280;27385;51.096;17.190;2023-05-01T04:21:45;100755.71;;;1.58;78.25
41706;BME280;27385;51.096;17.190;2023-05-01T04:24:15;100758.95;;;1.66;78.31
41706;BME280;27385;51.096;17.190;2023-05-01T04:26:47;100759.64;;;1.76;78.62
41706;BME280;27385;51.096;17.190;2023-05-01T04:29:18;100756.63;;;1.88;79.30
41706;BME280;27385;51.096;17.190;2023-05-01T04:31:49;100759.27;;;1.98;79.32
41706;BME280;27385;51.096;17.190;2023-05-01T04:34:19;100757.45;;;2.07;79.78
41706;BME280;27385;51.096;17.190;2023-05-01T04:36:51;100762.23;;;2.17;79.86
41706;BME280;27385;51.096;17.190;2023-05-01T04:39:21;100757.48;;;2.26;79.86
41706;BME280;27385;51.096;17.190;2023-05-01T04:41:52;100760.61;;;2.35;80.31
41706;BME280;27385;51.096;17.190;2023-05-01T04:44:24;100763.42;;;2.44;80.57
41706;BME280;27385;51.096;17.190;2023-05-01T04:46:56;100762.53;;;2.53;80.93
41706;BME280;27385;51.096;17.190;2023-05-01T04:51:57;100765.23;;;2.77;81.02
41706;BME280;27385;51.096;17.190;2023-05-01T04:54:28;100763.01;;;2.90;81.20
41706;BME280;27385;51.096;17.190;2023-05-01T04:56:59;100763.16;;;3.02;81.37
41706;BME280;27385;51.096;17.190;2023-05-01T04:59:31;100765.63;;;3.12;81.61
41706;BME280;27385;51.096;17.190;2023-05-01T05:02:02;100757.69;;;3.26;81.54
41706;BME280;27385;51.096;17.190;2023-05-01T05:04:33;100757.70;;;3.41;81.54
41706;BME280;27385;51.096;17.190;2023-05-01T05:07:04;100759.56;;;3.54;81.70
41706;BME280;27385;51.096;17.190;2023-05-01T05:09:35;100761.69;;;3.68;81.68
41706;BME280;27385;51.096;17.190;2023-05-01T05:12:06;100761.52;;;3.83;81.53
41706;BME280;27385;51.096;17.190;2023-05-01T05:14:37;100762.65;;;3.94;81.52
41706;BME280;27385;51.096;17.190;2023-05-01T05:17:08;100762.48;;;4.09;81.44
41706;BME280;27385;51.096;17.190;2023-05-01T05:19:39;100758.80;;;4.24;81.22
41706;BME280;27385;51.096;17.190;2023-05-01T05:22:10;100759.59;;;4.36;81.21
41706;BME280;27385;51.096;17.190;2023-05-01T05:24:41;100760.20;;;4.49;81.26
41706;BME280;27385;51.096;17.190;2023-05-01T05:27:13;100757.34;;;4.66;81.13
41706;BME280;27385;51.096;17.190;2023-05-01T05:29:44;100760.54;;;4.82;80.91
41706;BME280;27385;51.096;17.190;2023-05-01T05:32:15;100755.93;;;4.98;80.66
41706;BME280;27385;51.096;17.190;2023-05-01T05:34:46;100750.52;;;5.14;80.42
41706;BME280;27385;51.096;17.190;2023-05-01T05:37:17;100746.48;;;5.28;80.30
41706;BME280;27385;51.096;17.190;2023-05-01T05:39:48;100745.08;;;5.41;80.27
41706;BME280;27385;51.096;17.190;2023-05-01T05:42:19;100745.56;;;5.53;80.23
41706;BME280;27385;51.096;17.190;2023-05-01T05:44:50;100747.10;;;5.68;80.37
41706;BME280;27385;51.096;17.190;2023-05-01T05:47:21;100747.67;;;5.83;80.22
41706;BME280;27385;51.096;17.190;2023-05-01T05:49:52;100745.75;;;5.97;79.98
41706;BME280;27385;51.096;17.190;2023-05-01T05:52:23;100742.70;;;6.11;79.82
41706;BME280;27385;51.096;17.190;2023-05-01T05:54:54;100743.82;;;6.25;79.66
41706;BME280;27385;51.096;17.190;2023-05-01T05:57:25;100742.52;;;6.38;79.14
41706;BME280;27385;51.096;17.190;2023-05-01T05:59:56;100750.14;;;6.51;79.03
41706;BME280;27385;51.096;17.190;2023-05-01T06:02:27;100743.77;;;6.63;78.86
41706;BME280;27385;51.096;17.190;2023-05-01T06:04:58;100744.38;;;6.75;79.02
41706;BME280;27385;51.096;17.190;2023-05-01T06:07:29;100744.30;;;6.86;78.81
41706;BME280;27385;51.096;17.190;2023-05-01T06:10:00;100741.52;;;6.96;78.60
41706;BME280;27385;51.096;17.190;2023-05-01T06:12:33;100742.45;;;7.08;78.52
41706;BME280;27385;51.096;17.190;2023-05-01T06:15:05;100742.46;;;7.20;78.72
41706;BME280;27385;51.096;17.190;2023-05-01T06:17:37;100742.09;;;7.32;78.41
41706;BME280;27385;51.096;17.190;2023-05-01T06:20:10;100744.98;;;7.43;78.03
41706;BME280;27385;51.096;17.190;2023-05-01T06:22:42;100746.12;;;7.52;77.68
41706;BME280;27385;51.096;17.190;2023-05-01T06:25:13;100739.29;;;7.64;77.77
41706;BME280;27385;51.096;17.190;2023-05-01T06:27:44;100740.89;;;7.78;77.66
41706;BME280;27385;51.096;17.190;2023-05-01T06:30:15;100738.70;;;7.91;77.12
41706;BME280;27385;51.096;17.190;2023-05-01T06:32:48;100740.64;;;8.02;76.63
41706;BME280;27385;51.096;17.190;2023-05-01T06:35:19;100738.11;;;8.13;76.27
41706;BME280;27385;51.096;17.190;2023-05-01T06:37:50;100738.67;;;8.24;75.92
41706;BME280;27385;51.096;17.190;2023-05-01T06:40:21;100737.78;;;8.34;75.70
41706;BME280;27385;51.096;17.190;2023-05-01T06:42:52;100731.39;;;8.46;75.94
41706;BME280;27385;51.096;17.190;2023-05-01T06:45:23;100733.20;;;8.59;75.23
41706;BME280;27385;51.096;17.190;2023-05-01T06:47:54;100730.41;;;8.70;74.97
41706;BME280;27385;51.096;17.190;2023-05-01T06:50:24;100727.63;;;8.81;75.09
41706;BME280;27385;51.096;17.190;2023-05-01T06:52:57;100722.45;;;8.93;74.76
41706;BME280;27385;51.096;17.190;2023-05-01T06:55:29;100723.16;;;9.06;74.24
41706;BME280;27385;51.096;17.190;2023-05-01T06:58:01;100722.08;;;9.22;74.15
41706;BME280;27385;51.096;17.190;2023-05-01T07:00:34;100719.86;;;9.35;73.86
41706;BME280;27385;51.096;17.190;2023-05-01T07:03:05;100715.27;;;9.48;72.78
41706;BME280;27385;51.096;17.190;2023-05-01T07:05:35;100712.27;;;9.63;72.63
41706;BME280;27385;51.096;17.190;2023-05-01T07:08:08;100711.48;;;9.75;71.71
41706;BME280;27385;51.096;17.190;2023-05-01T07:10:39;100707.75;;;9.88;70.86
41706;BME280;27385;51.096;17.190;2023-05-01T07:13:10;100707.95;;;9.99;70.70
41706;BME280;27385;51.096;17.190;2023-05-01T07:15:41;100705.64;;;10.12;70.12
41706;BME280;27385;51.096;17.190;2023-05-01T07:18:12;100706.04;;;10.23;70.16
41706;BME280;27385;51.096;17.190;2023-05-01T07:20:43;100705.20;;;10.33;69.63
41706;BME280;27385;51.096;17.190;2023-05-01T07:23:15;100703.77;;;10.45;69.48
41706;BME280;27385;51.096;17.190;2023-05-01T07:25:46;100701.54;;;10.55;68.61
41706;BME280;27385;51.096;17.190;2023-05-01T07:28:17;100698.48;;;10.65;67.86
41706;BME280;27385;51.096;17.190;2023-05-01T07:30:49;100694.65;;;10.76;67.68
41706;BME280;27385;51.096;17.190;2023-05-01T07:33:20;100693.42;;;10.88;67.73
41706;BME280;27385;51.096;17.190;2023-05-01T07:35:52;100693.17;;;11.00;67.04
41706;BME280;27385;51.096;17.190;2023-05-01T07:38:23;100690.17;;;11.12;66.10
41706;BME280;27385;51.096;17.190;2023-05-01T07:40:54;100690.42;;;11.25;65.72
41706;BME280;27385;51.096;17.190;2023-05-01T07:43:25;100685.66;;;11.36;65.39
41706;BME280;27385;51.096;17.190;2023-05-01T07:45:57;100683.58;;;11.48;64.78
41706;BME280;27385;51.096;17.190;2023-05-01T07:48:28;100687.29;;;11.60;64.05
41706;BME280;27385;51.096;17.190;2023-05-01T07:51:03;100687.80;;;11.71;62.96
41706;BME280;27385;51.096;17.190;2023-05-01T07:53:34;100688.52;;;11.80;62.94
41706;BME280;27385;51.096;17.190;2023-05-01T07:56:09;100684.80;;;11.89;62.20
41706;BME280;27385;51.096;17.190;2023-05-01T07:58:40;100682.36;;;11.97;61.54
41706;BME280;27385;51.096;17.190;2023-05-01T08:01:11;100678.67;;;12.08;61.52
41706;BME280;27385;51.096;17.190;2023-05-01T08:03:43;100676.59;;;12.19;61.33
41706;BME280;27385;51.096;17.190;2023-05-01T08:06:14;100677.13;;;12.29;61.02
41706;BME280;27385;51.096;17.190;2023-05-01T08:08:45;100676.30;;;12.38;60.36
41706;BME280;27385;51.096;17.190;2023-05-01T08:11:16;100677.64;;;12.50;60.32
41706;BME280;27385;51.096;17.190;2023-05-01T08:13:47;100673.13;;;12.58;59.81
41706;BME280;27385;51.096;17.190;2023-05-01T08:16:18;100671.60;;;12.66;58.58
41706;BME280;27385;51.096;17.190;2023-05-01T08:18:50;100672.21;;;12.72;58.21
41706;BME280;27385;51.096;17.190;2023-05-01T08:21:24;100671.58;;;12.76;58.02
41706;BME280;27385;51.096;17.190;2023-05-01T08:23:57;100668.67;;;12.82;57.62
41706;BME280;27385;51.096;17.190;2023-05-01T08:26:28;100668.19;;;12.90;57.92
41706;BME280;27385;51.096;17.190;2023-05-01T08:28:58;100669.98;;;12.97;57.77
41706;BME280;27385;51.096;17.190;2023-05-01T08:31:29;100663.36;;;13.06;57.38
41706;BME280;27385;51.096;17.190;2023-05-01T08:34:00;100664.75;;;13.12;57.05
41706;BME280;27385;51.096;17.190;2023-05-01T08:36:33;100658.96;;;13.24;57.10
41706;BME280;27385;51.096;17.190;2023-05-01T08:39:06;100657.17;;;13.34;55.91
41706;BME280;27385;51.096;17.190;2023-05-01T08:41:37;100655.63;;;13.40;55.33
41706;BME280;27385;51.096;17.190;2023-05-01T08:44:11;100653.89;;;13.47;54.88
41706;BME280;27385;51.096;17.190;2023-05-01T08:46:47;100654.06;;;13.52;55.06
41706;BME280;27385;51.096;17.190;2023-05-01T08:49:22;100653.95;;;13.59;54.36
41706;BME280;27385;51.096;17.190;2023-05-01T08:51:55;100658.70;;;13.67;54.40
41706;BME280;27385;51.096;17.190;2023-05-01T08:54:27;100659.63;;;13.71;54.09
41706;BME280;27385;51.096;17.190;2023-05-01T08:57:01;100650.89;;;13.75;53.02
41706;BME280;27385;51.096;17.190;2023-05-01T08:59:34;100649.15;;;13.82;53.35
41706;BME280;27385;51.096;17.190;2023-05-01T09:02:06;100641.43;;;13.89;53.37
41706;BME280;27385;51.096;17.190;2023-05-01T09:04:39;100637.61;;;13.99;52.74
41706;BME280;27385;51.096;17.190;2023-05-01T09:07:10;100633.75;;;14.10;52.80
41706;BME280;27385;51.096;17.190;2023-05-01T09:09:41;100629.63;;;14.15;52.13
41706;BME280;27385;51.096;17.190;2023-05-01T09:12:24;100624.89;;;14.21;51.69
41706;BME280;27385;51.096;17.190;2023-05-01T09:14:55;100623.55;;;14.28;50.97
41706;BME280;27385;51.096;17.190;2023-05-01T09:17:26;100618.94;;;14.36;50.93
41706;BME280;27385;51.096;17.190;2023-05-01T09:20:02;100617.11;;;14.42;50.72
41706;BME280;27385;51.096;17.190;2023-05-01T09:22:35;100615.85;;;14.50;50.33
41706;BME280;27385;51.096;17.190;2023-05-01T09:25:08;100616.06;;;14.56;49.87
41706;BME280;27385;51.096;17.190;2023-05-01T09:27:40;100613.96;;;14.62;49.95
41706;BME280;27385;51.096;17.190;2023-05-01T09:30:30;100615.33;;;14.73;49.31
41706;BME280;27385;51.096;17.190;2023-05-01T09:33:11;100602.27;;;14.80;49.15
41706;BME280;27385;51.096;17.190;2023-05-01T09:35:55;100594.86;;;14.82;49.10
41706;BME280;27385;51.096;17.190;2023-05-01T09:38:28;100595.79;;;14.83;48.48
41706;BME280;27385;51.096;17.190;2023-05-01T09:41:04;100601.02;;;14.84;48.11
41706;BME280;27385;51.096;17.190;2023-05-01T09:43:35;100596.56;;;14.91;48.22
41706;BME280;27385;51.096;17.190;2023-05-01T09:46:10;100591.04;;;14.97;47.69
41706;BME280;27385;51.096;17.190;2023-05-01T09:48:41;100584.60;;;14.99;47.44
41706;BME280;27385;51.096;17.190;2023-05-01T09:51:25;100581.91;;;15.02;47.30
41706;BME280;27385;51.096;17.190;2023-05-01T09:53:58;100580.51;;;15.07;47.25
41706;BME280;27385;51.096;17.190;2023-05-01T09:56:30;100581.81;;;15.12;46.46
41706;BME280;27385;51.096;17.190;2023-05-01T09:59:21;100580.21;;;15.15;46.26
41706;BME280;27385;51.096;17.190;2023-05-01T10:01:53;100580.08;;;15.21;45.41
41706;BME280;27385;51.096;17.190;2023-05-01T10:04:31;100576.34;;;15.29;45.93
41706;BME280;27385;51.096;17.190;2023-05-01T10:07:13;100571.70;;;15.40;45.99
41706;BME280;27385;51.096;17.190;2023-05-01T10:09:44;100571.62;;;15.50;45.78
41706;BME280;27385;51.096;17.190;2023-05-01T10:12:23;100565.19;;;15.56;45.09
41706;BME280;27385;51.096;17.190;2023-05-01T10:14:55;100568.32;;;15.56;44.77
41706;BME280;27385;51.096;17.190;2023-05-01T10:17:26;100561.27;;;15.61;45.18
41706;BME280;27385;51.096;17.190;2023-05-01T10:19:57;100552.42;;;15.62;44.20
41706;BME280;27385;51.096;17.190;2023-05-01T10:22:28;100550.59;;;15.65;44.29
41706;BME280;27385;51.096;17.190;2023-05-01T10:24:59;100540.05;;;15.78;44.04
41706;BME280;27385;51.096;17.190;2023-05-01T10:27:31;100534.27;;;15.87;44.01
41706;BME280;27385;51.096;17.190;2023-05-01T10:30:04;100529.27;;;15.94;43.56
41706;BME280;27385;51.096;17.190;2023-05-01T10:32:36;100523.39;;;15.98;42.61
41706;BME280;27385;51.096;17.190;2023-05-01T10:35:11;100518.48;;;16.00;42.83
41706;BME280;27385;51.096;17.190;2023-05-01T10:37:47;100517.11;;;16.08;42.52
41706;BME280;27385;51.096;17.190;2023-05-01T10:40:48;100514.65;;;16.17;42.57
41706;BME280;27385;51.096;17.190;2023-05-01T10:43:22;100518.15;;;16.28;42.81
41706;BME280;27385;51.096;17.190;2023-05-01T10:46:28;100517.69;;;16.35;42.42
41706;BME280;27385;51.096;17.190;2023-05-01T10:48:59;100513.42;;;16.45;42.15
41706;BME280;27385;51.096;17.190;2023-05-01T10:51:30;100505.46;;;16.51;42.17
41706;BME280;27385;51.096;17.190;2023-05-01T10:54:22;100503.15;;;16.55;41.52
41706;BME280;27385;51.096;17.190;2023-05-01T10:56:55;100500.89;;;16.57;41.54
41706;BME280;27385;51.096;17.190;2023-05-01T10:59:27;100493.26;;;16.60;41.20
41706;BME280;27385;51.096;17.190;2023-05-01T11:01:58;100490.74;;;16.60;40.50
41706;BME280;27385;51.096;17.190;2023-05-01T11:04:48;100489.30;;;16.60;40.54
41706;BME280;27385;51.096;17.190;2023-05-01T11:07:25;100486.18;;;16.63;40.83
41706;BME280;27385;51.096;17.190;2023-05-01T11:09:56;100484.94;;;16.69;40.82
41706;BME280;27385;51.096;17.190;2023-05-01T11:12:47;100479.48;;;16.77;40.10
41706;BME280;27385;51.096;17.190;2023-05-01T11:15:32;100475.61;;;16.90;40.29
41706;BME280;27385;51.096;17.190;2023-05-01T11:18:03;100471.46;;;17.02;40.10
41706;BME280;27385;51.096;17.190;2023-05-01T11:20:50;100468.45;;;17.13;39.78
41706;BME280;27385;51.096;17.190;2023-05-01T11:23:21;100468.19;;;17.25;39.28
41706;BME280;27385;51.096;17.190;2023-05-01T11:26:04;100461.20;;;17.28;38.71
41706;BME280;27385;51.096;17.190;2023-05-01T11:28:34;100461.67;;;17.36;38.39
41706;BME280;27385;51.096;17.190;2023-05-01T11:31:07;100452.69;;;17.46;38.02
41706;BME280;27385;51.096;17.190;2023-05-01T11:33:39;100446.17;;;17.49;37.98
41706;BME280;27385;51.096;17.190;2023-05-01T11:36:10;100445.48;;;17.56;37.32
41706;BME280;27385;51.096;17.190;2023-05-01T11:38:49;100439.78;;;17.65;37.80
41706;BME280;27385;51.096;17.190;2023-05-01T11:41:21;100441.86;;;17.69;37.66
41706;BME280;27385;51.096;17.190;2023-05-01T11:43:54;100436.04;;;17.72;37.94
41706;BME280;27385;51.096;17.190;2023-05-01T11:46:26;100427.07;;;17.75;37.86
41706;BME280;27385;51.096;17.190;2023-05-01T11:48:58;100427.55;;;17.82;37.45
41706;BME280;27385;51.096;17.190;2023-05-01T11:51:29;100419.23;;;17.87;37.26
41706;BME280;27385;51.096;17.190;2023-05-01T11:54:02;100417.86;;;17.92;37.12
41706;BME280;27385;51.096;17.190;2023-05-01T11:56:35;100414.08;;;17.95;37.02
41706;BME280;27385;51.096;17.190;2023-05-01T11:59:13;100411.61;;;17.97;36.58
41706;BME280;27385;51.096;17.190;2023-05-01T12:01:47;100404.78;;;18.02;36.27
41706;BME280;27385;51.096;17.190;2023-05-01T12:04:26;100402.35;;;18.06;36.33
41706;BME280;27385;51.096;17.190;2023-05-01T12:06:57;100398.52;;;18.12;36.24
41706;BME280;27385;51.096;17.190;2023-05-01T12:09:29;100391.83;;;18.15;35.78
41706;BME280;27385;51.096;17.190;2023-05-01T12:12:00;100389.95;;;18.17;35.30
41706;BME280;27385;51.096;17.190;2023-05-01T12:14:32;100385.27;;;18.18;35.05
41706;BME280;27385;51.096;17.190;2023-05-01T12:17:03;100388.94;;;18.22;35.10
41706;BME280;27385;51.096;17.190;2023-05-01T12:19:35;100381.45;;;18.24;34.23
41706;BME280;27385;51.096;17.190;2023-05-01T12:22:17;100379.08;;;18.28;34.73
41706;BME280;27385;51.096;17.190;2023-05-01T12:24:52;100378.41;;;18.30;34.56
41706;BME280;27385;51.096;17.190;2023-05-01T12:27:22;100373.73;;;18.34;34.74
41706;BME280;27385;51.096;17.190;2023-05-01T12:29:53;100375.20;;;18.37;34.84
41706;BME280;27385;51.096;17.190;2023-05-01T12:32:31;100374.48;;;18.38;34.68
41706;BME280;27385;51.096;17.190;2023-05-01T12:35:13;100363.88;;;18.39;34.43
41706;BME280;27385;51.096;17.190;2023-05-01T12:37:44;100355.98;;;18.39;34.31
41706;BME280;27385;51.096;17.190;2023-05-01T12:40:15;100355.08;;;18.40;34.65
41706;BME280;27385;51.096;17.190;2023-05-01T12:42:54;100351.61;;;18.42;33.80
41706;BME280;27385;51.096;17.190;2023-05-01T12:45:26;100350.34;;;18.45;34.29
41706;BME280;27385;51.096;17.190;2023-05-01T12:47:57;100343.70;;;18.45;34.40
41706;BME280;27385;51.096;17.190;2023-05-01T12:50:28;100339.30;;;18.47;34.15
41706;BME280;27385;51.096;17.190;2023-05-01T12:53:03;100331.67;;;18.53;34.29
41706;BME280;27385;51.096;17.190;2023-05-01T12:55:44;100332.65;;;18.58;34.34
41706;BME280;27385;51.096;17.190;2023-05-01T12:58:16;100324.96;;;18.61;34.39
41706;BME280;27385;51.096;17.190;2023-05-01T13:00:48;100324.18;;;18.66;34.33
41706;BME280;27385;51.096;17.190;2023-05-01T13:03:23;100320.85;;;18.68;34.18
41706;BME280;27385;51.096;17.190;2023-05-01T13:05:56;100316.66;;;18.70;34.07
41706;BME280;27385;51.096;17.190;2023-05-01T13:08:29;100313.23;;;18.73;33.71
41706;BME280;27385;51.096;17.190;2023-05-01T13:11:07;100310.42;;;18.76;33.19
41706;BME280;27385;51.096;17.190;2023-05-01T13:13:38;100308.39;;;18.79;32.76
41706;BME280;27385;51.096;17.190;2023-05-01T13:16:11;100299.61;;;18.84;33.08
41706;BME280;27385;51.096;17.190;2023-05-01T13:18:47;100301.60;;;18.93;32.68
41706;BME280;27385;51.096;17.190;2023-05-01T13:21:20;100297.24;;;18.99;32.35